sensor_id;sensor_type;location;lat;lon;timestamp;temperature;humidity
59847;DHT22;45728;48.788;2.302;2024-01-16T00:01:54;-0.80;99.90
59847;DHT22;45728;48.788;2.302;2024-01-16T00:04:20;-0.80;99.90
59847;DHT22;45728;48.788;2.302;2024-01-16T00:06:46;-0.90;99.90
59847;DHT22;45728;48.788;2.302;2024-01-16T00:09:12;-1.00;99.90
59847;DHT22;45728;48.788;2.302;2024-01-16T00:11:44;-1.00;99.90
59847;DHT22;45728;48.788;2.302;2024-01-16T00:14:10;-1.00;99.90
59847;DHT22;45728;48.788;2.302;2024-01-16T00:16:43;-1.00;99.90
59847;DHT22;45728;48.788;2.302;2024-01-16T00:19:11;-1.10;99.90
59847;DHT22;45728;48.788;2.302;2024-01-16T00:21:45;-1.10;99.90
59847;DHT22;45728;48.788;2.302;2024-01-16T00:24:14;-1.00;99.90
59847;DHT22;45728;48.788;2.302;2024-01-16T00:26:40;-1.00;99.90
59847;DHT22;45728;48.788;2.302;2024-01-16T00:29:06;-1.10;99.90
59847;DHT22;45728;48.788;2.302;2024-01-16T00:31:32;-1.10;99.90
59847;DHT22;45728;48.788;2.302;2024-01-16T00:33:59;-1.10;99.90
59847;DHT22;45728;48.788;2.302;2024-01-16T00:36:25;-1.20;99.90
59847;DHT22;45728;48.788;2.302;2024-01-16T00:38:51;-1.20;99.90
59847;DHT22;45728;48.788;2.302;2024-01-16T00:41:17;-1.20;99.90
59847;DHT22;45728;48.788;2.302;2024-01-16T00:43:44;-1.30;99.90
59847;DHT22;45728;48.788;2.302;2024-01-16T00:46:10;-1.20;99.90
59847;DHT22;45728;48.788;2.302;2024-01-16T00:48:36;-1.20;99.90
59847;DHT22;45728;48.788;2.302;2024-01-16T00:51:02;-1.30;99.90
59847;DHT22;45728;48.788;2.302;2024-01-16T00:53:28;-1.20;99.90
59847;DHT22;45728;48.788;2.302;2024-01-16T00:55:54;-1.10;99.90
59847;DHT22;45728;48.788;2.302;2024-01-16T00:58:24;-1.30;99.90
59847;DHT22;45728;48.788;2.302;2024-01-16T01:00:50;-1.20;99.90
59847;DHT22;45728;48.788;2.302;2024-01-16T01:03:16;-1.30;99.90
59847;DHT22;45728;48.788;2.302;2024-01-16T01:05:42;-1.40;99.90
59847;DHT22;45728;48.788;2.302;2024-01-16T01:08:08;-1.40;99.90
59847;DHT22;45728;48.788;2.302;2024-01-16T01:10:34;-1.30;99.90
59847;DHT22;45728;48.788;2.302;2024-01-16T01:13:01;-1.40;99.90
59847;DHT22;45728;48.788;2.302;2024-01-16T01:15:27;-1.40;99.90
59847;DHT22;45728;48.788;2.302;2024-01-16T01:17:53;-1.40;99.90
59847;DHT22;45728;48.788;2.302;2024-01-16T01:20:20;-1.50;99.90
59847;DHT22;45728;48.788;2.302;2024-01-16T01:22:46;-1.40;99.90
59847;DHT22;45728;48.788;2.302;2024-01-16T01:25:12;-1.30;99.90
59847;DHT22;45728;48.788;2.302;2024-01-16T01:27:38;-1.30;99.90
59847;DHT22;45728;48.788;2.302;2024-01-16T01:30:06;-1.40;99.90
59847;DHT22;45728;48.788;2.302;2024-01-16T01:32:32;-1.50;99.90
59847;DHT22;45728;48.788;2.302;2024-01-16T01:34:59;-1.70;99.90
59847;DHT22;45728;48.788;2.302;2024-01-16T01:37:25;-1.70;99.90
59847;DHT22;45728;48.788;2.302;2024-01-16T01:39:51;-1.70;99.90
59847;DHT22;45728;48.788;2.302;2024-01-16T01:42:17;-1.70;99.90
59847;DHT22;45728;48.788;2.302;2024-01-16T01:44:43;-1.60;99.90
59847;DHT22;45728;48.788;2.302;2024-01-16T01:47:10;-1.60;99.90
59847;DHT22;45728;48.788;2.302;2024-01-16T01:49:36;-1.70;99.90
59847;DHT22;45728;48.788;2.302;2024-01-16T01:52:03;-1.70;99.90
59847;DHT22;45728;48.788;2.302;2024-01-16T01:54:31;-1.70;99.90
59847;DHT22;45728;48.788;2.302;2024-01-16T01:56:59;-1.80;99.90
59847;DHT22;45728;48.788;2.302;2024-01-16T01:59:25;-1.80;99.90
59847;DHT22;45728;48.788;2.302;2024-01-16T02:01:52;-1.70;99.90
59847;DHT22;45728;48.788;2.302;2024-01-16T02:04:19;-1.60;99.90
59847;DHT22;45728;48.788;2.302;2024-01-16T02:06:45;-1.70;99.90
59847;DHT22;45728;48.788;2.302;2024-01-16T02:09:12;-1.70;99.90
59847;DHT22;45728;48.788;2.302;2024-01-16T02:11:42;-1.70;99.90
59847;DHT22;45728;48.788;2.302;2024-01-16T02:14:09;-1.50;99.90
59847;DHT22;45728;48.788;2.302;2024-01-16T02:16:42;-1.50;99.90
59847;DHT22;45728;48.788;2.302;2024-01-16T02:19:10;-1.70;99.90
59847;DHT22;45728;48.788;2.302;2024-01-16T02:21:41;-1.70;99.90
59847;DHT22;45728;48.788;2.302;2024-01-16T02:24:10;-1.70;99.90
59847;DHT22;45728;48.788;2.302;2024-01-16T02:26:37;-1.70;99.90
59847;DHT22;45728;48.788;2.302;2024-01-16T02:29:03;-1.70;99.90
59847;DHT22;45728;48.788;2.302;2024-01-16T02:31:33;-1.60;99.90
59847;DHT22;45728;48.788;2.302;2024-01-16T02:34:00;-1.70;99.90
59847;DHT22;45728;48.788;2.302;2024-01-16T02:36:27;-1.70;99.90
59847;DHT22;45728;48.788;2.302;2024-01-16T02:38:53;-1.90;99.90
59847;DHT22;45728;48.788;2.302;2024-01-16T02:41:19;-1.90;99.90
59847;DHT22;45728;48.788;2.302;2024-01-16T02:43:46;-1.80;99.90
59847;DHT22;45728;48.788;2.302;2024-01-16T02:46:13;-1.90;99.90
59847;DHT22;45728;48.788;2.302;2024-01-16T02:48:39;-1.80;99.90
59847;DHT22;45728;48.788;2.302;2024-01-16T02:51:05;-1.80;99.90
59847;DHT22;45728;48.788;2.302;2024-01-16T02:53:32;-1.90;99.90
59847;DHT22;45728;48.788;2.302;2024-01-16T02:55:58;-1.90;99.90
59847;DHT22;45728;48.788;2.302;2024-01-16T02:58:27;-1.80;99.90
59847;DHT22;45728;48.788;2.302;2024-01-16T03:00:54;-1.90;99.90
59847;DHT22;45728;48.788;2.302;2024-01-16T03:03:20;-1.90;99.90
59847;DHT22;45728;48.788;2.302;2024-01-16T03:05:47;-1.80;99.90
59847;DHT22;45728;48.788;2.302;2024-01-16T03:08:13;-2.00;99.90
59847;DHT22;45728;48.788;2.302;2024-01-16T03:10:39;-2.00;99.90
59847;DHT22;45728;48.788;2.302;2024-01-16T03:13:05;-2.00;99.90
59847;DHT22;45728;48.788;2.302;2024-01-16T03:15:31;-2.00;99.90
59847;DHT22;45728;48.788;2.302;2024-01-16T03:17:58;-2.00;99.90
59847;DHT22;45728;48.788;2.302;2024-01-16T03:20:24;-2.00;99.90
59847;DHT22;45728;48.788;2.302;2024-01-16T03:22:50;-2.00;99.90
59847;DHT22;45728;48.788;2.302;2024-01-16T03:25:17;-2.00;99.90
59847;DHT22;45728;48.788;2.302;2024-01-16T03:27:43;-1.90;99.90
59847;DHT22;45728;48.788;2.302;2024-01-16T03:30:10;-1.90;99.90
59847;DHT22;45728;48.788;2.302;2024-01-16T03:32:37;-2.00;99.90
59847;DHT22;45728;48.788;2.302;2024-01-16T03:35:03;-1.90;99.90
59847;DHT22;45728;48.788;2.302;2024-01-16T03:37:30;-2.00;99.90
59847;DHT22;45728;48.788;2.302;2024-01-16T03:39:56;-2.10;99.90
59847;DHT22;45728;48.788;2.302;2024-01-16T03:42:23;-2.10;99.90
59847;DHT22;45728;48.788;2.302;2024-01-16T03:44:49;-2.00;99.90
59847;DHT22;45728;48.788;2.302;2024-01-16T03:47:15;-2.10;99.90
59847;DHT22;45728;48.788;2.302;2024-01-16T03:49:42;-2.10;99.90
59847;DHT22;45728;48.788;2.302;2024-01-16T03:52:08;-2.00;99.90
59847;DHT22;45728;48.788;2.302;2024-01-16T03:54:34;-2.00;99.90
59847;DHT22;45728;48.788;2.302;2024-01-16T03:57:00;-2.10;99.90
59847;DHT22;45728;48.788;2.302;2024-01-16T03:59:26;-2.10;99.90
59847;DHT22;45728;48.788;2.302;2024-01-16T04:01:52;-2.10;99.90
59847;DHT22;45728;48.788;2.302;2024-01-16T04:04:18;-2.10;99.90
59847;DHT22;45728;48.788;2.302;2024-01-16T04:06:46;-2.10;99.90
59847;DHT22;45728;48.788;2.302;2024-01-16T04:09:12;-2.10;99.90
59847;DHT22;45728;48.788;2.302;2024-01-16T04:11:40;-2.10;99.90
59847;DHT22;45728;48.788;2.302;2024-01-16T04:14:06;-2.20;99.90
59847;DHT22;45728;48.788;2.302;2024-01-16T04:16:32;-2.10;99.90
59847;DHT22;45728;48.788;2.302;2024-01-16T04:18:59;-2.00;99.90
59847;DHT22;45728;48.788;2.302;2024-01-16T04:21:25;-2.10;99.90
59847;DHT22;45728;48.788;2.302;2024-01-16T04:23:51;-2.10;99.90
59847;DHT22;45728;48.788;2.302;2024-01-16T04:26:18;-2.10;99.90
59847;DHT22;45728;48.788;2.302;2024-01-16T04:28:44;-2.10;99.90
59847;DHT22;45728;48.788;2.302;2024-01-16T04:31:10;-2.10;99.90
59847;DHT22;45728;48.788;2.302;2024-01-16T04:33:38;-2.10;99.90
59847;DHT22;45728;48.788;2.302;2024-01-16T04:36:05;-2.10;99.90
59847;DHT22;45728;48.788;2.302;2024-01-16T04:38:31;-2.10;99.90
59847;DHT22;45728;48.788;2.302;2024-01-16T04:41:01;-2.20;99.90
59847;DHT22;45728;48.788;2.302;2024-01-16T04:43:27;-2.10;99.90
59847;DHT22;45728;48.788;2.302;2024-01-16T04:45:53;-2.20;99.90
59847;DHT22;45728;48.788;2.302;2024-01-16T04:48:20;-2.20;99.90
59847;DHT22;45728;48.788;2.302;2024-01-16T04:50:46;-2.20;99.90
59847;DHT22;45728;48.788;2.302;2024-01-16T04:53:12;-2.20;99.90
59847;DHT22;45728;48.788;2.302;2024-01-16T04:55:38;-2.30;99.90
59847;DHT22;45728;48.788;2.302;2024-01-16T04:58:05;-2.30;99.90
59847;DHT22;45728;48.788;2.302;2024-01-16T05:00:31;-2.20;99.90
59847;DHT22;45728;48.788;2.302;2024-01-16T05:02:58;-2.30;99.90
59847;DHT22;45728;48.788;2.302;2024-01-16T05:05:24;-2.30;99.90
59847;DHT22;45728;48.788;2.302;2024-01-16T05:07:50;-2.20;99.90
59847;DHT22;45728;48.788;2.302;2024-01-16T05:10:17;-2.20;99.90
59847;DHT22;45728;48.788;2.302;2024-01-16T05:12:43;-2.30;99.90
59847;DHT22;45728;48.788;2.302;2024-01-16T05:15:09;-2.30;99.90
59847;DHT22;45728;48.788;2.302;2024-01-16T05:17:37;-2.20;99.90
59847;DHT22;45728;48.788;2.302;2024-01-16T05:20:04;-2.20;99.90
59847;DHT22;45728;48.788;2.302;2024-01-16T05:22:31;-2.30;99.90
59847;DHT22;45728;48.788;2.302;2024-01-16T05:24:57;-2.30;99.90
59847;DHT22;45728;48.788;2.302;2024-01-16T05:27:23;-2.30;99.90
59847;DHT22;45728;48.788;2.302;2024-01-16T05:29:49;-2.20;99.90
59847;DHT22;45728;48.788;2.302;2024-01-16T05:32:15;-2.30;99.90
59847;DHT22;45728;48.788;2.302;2024-01-16T05:34:41;-2.20;99.90
59847;DHT22;45728;48.788;2.302;2024-01-16T05:37:07;-2.20;99.90
59847;DHT22;45728;48.788;2.302;2024-01-16T05:39:33;-2.30;99.90
59847;DHT22;45728;48.788;2.302;2024-01-16T05:41:59;-2.40;99.90
59847;DHT22;45728;48.788;2.302;2024-01-16T05:44:26;-2.50;99.90
59847;DHT22;45728;48.788;2.302;2024-01-16T05:46:52;-2.60;99.90
59847;DHT22;45728;48.788;2.302;2024-01-16T05:49:18;-2.50;99.90
59847;DHT22;45728;48.788;2.302;2024-01-16T05:51:44;-2.40;99.90
59847;DHT22;45728;48.788;2.302;2024-01-16T05:54:10;-2.30;99.90
59847;DHT22;45728;48.788;2.302;2024-01-16T05:56:36;-2.40;99.90
59847;DHT22;45728;48.788;2.302;2024-01-16T05:59:02;-2.50;99.90
59847;DHT22;45728;48.788;2.302;2024-01-16T06:01:28;-2.60;99.90
59847;DHT22;45728;48.788;2.302;2024-01-16T06:03:54;-2.50;99.90
59847;DHT22;45728;48.788;2.302;2024-01-16T06:06:21;-2.50;99.90
59847;DHT22;45728;48.788;2.302;2024-01-16T06:08:47;-2.60;99.90
59847;DHT22;45728;48.788;2.302;2024-01-16T06:11:13;-2.50;99.90
59847;DHT22;45728;48.788;2.302;2024-01-16T06:13:39;-2.60;99.90
59847;DHT22;45728;48.788;2.302;2024-01-16T06:16:08;-2.50;99.90
59847;DHT22;45728;48.788;2.302;2024-01-16T06:18:35;-2.50;99.90
59847;DHT22;45728;48.788;2.302;2024-01-16T06:21:02;-2.60;99.90
59847;DHT22;45728;48.788;2.302;2024-01-16T06:23:28;-2.60;99.90
59847;DHT22;45728;48.788;2.302;2024-01-16T06:25:55;-2.70;99.90
59847;DHT22;45728;48.788;2.302;2024-01-16T06:28:21;-2.60;99.90
59847;DHT22;45728;48.788;2.302;2024-01-16T06:30:47;-2.60;99.90
59847;DHT22;45728;48.788;2.302;2024-01-16T06:33:13;-2.70;99.90
59847;DHT22;45728;48.788;2.302;2024-01-16T06:35:39;-2.70;99.90
59847;DHT22;45728;48.788;2.302;2024-01-16T06:38:05;-2.60;99.90
59847;DHT22;45728;48.788;2.302;2024-01-16T06:40:31;-2.70;99.90
59847;DHT22;45728;48.788;2.302;2024-01-16T06:42:57;-2.70;99.90
59847;DHT22;45728;48.788;2.302;2024-01-16T06:45:23;-2.60;99.90
59847;DHT22;45728;48.788;2.302;2024-01-16T06:47:52;-2.50;99.90
59847;DHT22;45728;48.788;2.302;2024-01-16T06:50:18;-2.60;99.90
59847;DHT22;45728;48.788;2.302;2024-01-16T06:52:45;-2.70;99.90
59847;DHT22;45728;48.788;2.302;2024-01-16T06:55:11;-2.60;99.90
59847;DHT22;45728;48.788;2.302;2024-01-16T06:57:37;-2.70;99.90
59847;DHT22;45728;48.788;2.302;2024-01-16T07:00:03;-2.80;99.90
59847;DHT22;45728;48.788;2.302;2024-01-16T07:02:33;-2.70;99.90
59847;DHT22;45728;48.788;2.302;2024-01-16T07:04:59;-2.60;99.90
59847;DHT22;45728;48.788;2.302;2024-01-16T07:07:25;-2.60;99.90
59847;DHT22;45728;48.788;2.302;2024-01-16T07:09:51;-2.60;99.90
59847;DHT22;45728;48.788;2.302;2024-01-16T07:12:17;-2.50;99.90
59847;DHT22;45728;48.788;2.302;2024-01-16T07:14:44;-2.60;99.90
59847;DHT22;45728;48.788;2.302;2024-01-16T07:17:10;-2.60;99.90
59847;DHT22;45728;48.788;2.302;2024-01-16T07:19:36;-2.60;99.90
59847;DHT22;45728;48.788;2.302;2024-01-16T07:22:02;-2.50;99.90
59847;DHT22;45728;48.788;2.302;2024-01-16T07:24:28;-2.70;99.90
59847;DHT22;45728;48.788;2.302;2024-01-16T07:26:54;-2.60;99.90
59847;DHT22;45728;48.788;2.302;2024-01-16T07:29:20;-2.60;99.90
59847;DHT22;45728;48.788;2.302;2024-01-16T07:31:46;-2.60;99.90
59847;DHT22;45728;48.788;2.302;2024-01-16T07:34:12;-2.50;99.90
59847;DHT22;45728;48.788;2.302;2024-01-16T07:36:43;-2.50;99.90
59847;DHT22;45728;48.788;2.302;2024-01-16T07:39:09;-2.50;99.90
59847;DHT22;45728;48.788;2.302;2024-01-16T07:41:35;-2.40;99.90
59847;DHT22;45728;48.788;2.302;2024-01-16T07:44:01;-2.40;99.90
59847;DHT22;45728;48.788;2.302;2024-01-16T07:46:27;-2.40;99.90
59847;DHT22;45728;48.788;2.302;2024-01-16T07:48:53;-2.40;99.90
59847;DHT22;45728;48.788;2.302;2024-01-16T07:51:19;-2.40;99.90
59847;DHT22;45728;48.788;2.302;2024-01-16T07:53:45;-2.40;99.90
59847;DHT22;45728;48.788;2.302;2024-01-16T07:56:12;-2.30;99.90
59847;DHT22;45728;48.788;2.302;2024-01-16T07:58:38;-2.20;99.90
59847;DHT22;45728;48.788;2.302;2024-01-16T08:01:04;-2.10;99.90
59847;DHT22;45728;48.788;2.302;2024-01-16T08:03:30;-2.20;99.90
59847;DHT22;45728;48.788;2.302;2024-01-16T08:05:56;-2.10;99.90
59847;DHT22;45728;48.788;2.302;2024-01-16T08:08:23;-2.10;99.90
59847;DHT22;45728;48.788;2.302;2024-01-16T08:10:49;-2.10;99.90
59847;DHT22;45728;48.788;2.302;2024-01-16T08:13:15;-2.20;99.90
59847;DHT22;45728;48.788;2.302;2024-01-16T08:15:41;-2.20;99.90
59847;DHT22;45728;48.788;2.302;2024-01-16T08:18:07;-2.10;99.90
59847;DHT22;45728;48.788;2.302;2024-01-16T08:20:33;-2.10;99.90
59847;DHT22;45728;48.788;2.302;2024-01-16T08:22:59;-2.00;99.90
59847;DHT22;45728;48.788;2.302;2024-01-16T08:25:25;-2.00;99.90
59847;DHT22;45728;48.788;2.302;2024-01-16T08:27:51;-1.90;99.90
59847;DHT22;45728;48.788;2.302;2024-01-16T08:30:17;-1.80;99.90
59847;DHT22;45728;48.788;2.302;2024-01-16T08:32:44;-1.80;99.90
59847;DHT22;45728;48.788;2.302;2024-01-16T08:35:10;-1.70;99.90
59847;DHT22;45728;48.788;2.302;2024-01-16T08:37:36;-1.60;99.90
59847;DHT22;45728;48.788;2.302;2024-01-16T08:40:02;-1.60;99.90
59847;DHT22;45728;48.788;2.302;2024-01-16T08:42:30;-1.50;99.90
59847;DHT22;45728;48.788;2.302;2024-01-16T08:44:56;-1.40;99.90
59847;DHT22;45728;48.788;2.302;2024-01-16T08:47:22;-1.30;99.90
59847;DHT22;45728;48.788;2.302;2024-01-16T08:49:48;-1.30;99.90
59847;DHT22;45728;48.788;2.302;2024-01-16T08:52:15;-1.20;99.90
59847;DHT22;45728;48.788;2.302;2024-01-16T08:54:41;-1.20;99.90
59847;DHT22;45728;48.788;2.302;2024-01-16T08:57:07;-1.10;99.90
59847;DHT22;45728;48.788;2.302;2024-01-16T08:59:36;-1.10;99.90
59847;DHT22;45728;48.788;2.302;2024-01-16T09:02:02;-1.10;99.90
59847;DHT22;45728;48.788;2.302;2024-01-16T09:04:29;-1.00;99.90
59847;DHT22;45728;48.788;2.302;2024-01-16T09:06:55;-0.90;99.90
59847;DHT22;45728;48.788;2.302;2024-01-16T09:09:21;-0.90;99.90
59847;DHT22;45728;48.788;2.302;2024-01-16T09:11:47;-0.80;99.90
59847;DHT22;45728;48.788;2.302;2024-01-16T09:14:13;-0.80;99.90
59847;DHT22;45728;48.788;2.302;2024-01-16T09:16:39;-0.80;99.90
59847;DHT22;45728;48.788;2.302;2024-01-16T09:19:06;-0.70;99.90
59847;DHT22;45728;48.788;2.302;2024-01-16T09:21:32;-0.70;99.90
59847;DHT22;45728;48.788;2.302;2024-01-16T09:23:58;-0.60;99.90
59847;DHT22;45728;48.788;2.302;2024-01-16T09:26:24;-0.60;99.90
59847;DHT22;45728;48.788;2.302;2024-01-16T09:28:50;-0.60;99.90
59847;DHT22;45728;48.788;2.302;2024-01-16T09:31:16;-0.50;99.90
59847;DHT22;45728;48.788;2.302;2024-01-16T09:33:43;-0.30;99.90
59847;DHT22;45728;48.788;2.302;2024-01-16T09:36:09;-0.20;99.90
59847;DHT22;45728;48.788;2.302;2024-01-16T09:38:35;0.70;99.90
59847;DHT22;45728;48.788;2.302;2024-01-16T09:41:01;1.40;99.90
59847;DHT22;45728;48.788;2.302;2024-01-16T09:43:29;1.70;99.90
59847;DHT22;45728;48.788;2.302;2024-01-16T09:46:00;2.30;99.90
59847;DHT22;45728;48.788;2.302;2024-01-16T09:48:30;3.20;99.90
59847;DHT22;45728;48.788;2.302;2024-01-16T09:50:57;3.50;99.90
59847;DHT22;45728;48.788;2.302;2024-01-16T09:53:24;3.80;99.90
59847;DHT22;45728;48.788;2.302;2024-01-16T09:55:50;4.40;99.90
59847;DHT22;45728;48.788;2.302;2024-01-16T09:58:19;4.90;99.90
59847;DHT22;45728;48.788;2.302;2024-01-16T10:00:46;4.80;99.90
59847;DHT22;45728;48.788;2.302;2024-01-16T10:03:13;5.60;99.90
59847;DHT22;45728;48.788;2.302;2024-01-16T10:05:41;6.00;99.90
59847;DHT22;45728;48.788;2.302;2024-01-16T10:08:08;6.30;99.90
59847;DHT22;45728;48.788;2.302;2024-01-16T10:10:35;6.20;99.90
59847;DHT22;45728;48.788;2.302;2024-01-16T10:13:01;6.40;99.90
59847;DHT22;45728;48.788;2.302;2024-01-16T10:15:27;7.10;99.90
59847;DHT22;45728;48.788;2.302;2024-01-16T10:17:53;7.30;99.90
59847;DHT22;45728;48.788;2.302;2024-01-16T10:20:32;7.50;99.90
59847;DHT22;45728;48.788;2.302;2024-01-16T10:22:58;7.80;99.90
59847;DHT22;45728;48.788;2.302;2024-01-16T10:25:24;8.20;99.90
59847;DHT22;45728;48.788;2.302;2024-01-16T10:28:09;7.70;99.90
59847;DHT22;45728;48.788;2.302;2024-01-16T10:30:37;7.70;99.90
59847;DHT22;45728;48.788;2.302;2024-01-16T10:33:13;7.60;99.90
59847;DHT22;45728;48.788;2.302;2024-01-16T10:35:40;7.40;99.90
59847;DHT22;45728;48.788;2.302;2024-01-16T10:38:07;7.60;99.90
59847;DHT22;45728;48.788;2.302;2024-01-16T10:40:33;7.20;99.90
59847;DHT22;45728;48.788;2.302;2024-01-16T10:43:04;7.00;99.90
59847;DHT22;45728;48.788;2.302;2024-01-16T10:45:31;6.60;99.90
59847;DHT22;45728;48.788;2.302;2024-01-16T10:48:04;6.40;99.90
59847;DHT22;45728;48.788;2.302;2024-01-16T10:50:33;6.70;99.90
59847;DHT22;45728;48.788;2.302;2024-01-16T10:53:06;6.80;99.90
59847;DHT22;45728;48.788;2.302;2024-01-16T10:55:53;7.10;99.90
59847;DHT22;45728;48.788;2.302;2024-01-16T10:58:23;7.00;99.90
59847;DHT22;45728;48.788;2.302;2024-01-16T11:00:52;6.90;99.90
59847;DHT22;45728;48.788;2.302;2024-01-16T11:04:03;6.80;99.90
59847;DHT22;45728;48.788;2.302;2024-01-16T11:06:10;6.70;99.90
59847;DHT22;45728;48.788;2.302;2024-01-16T11:08:37;6.60;99.90
59847;DHT22;45728;48.788;2.302;2024-01-16T11:11:04;6.30;99.90
59847;DHT22;45728;48.788;2.302;2024-01-16T11:13:34;5.90;99.90
59847;DHT22;45728;48.788;2.302;2024-01-16T11:16:04;6.00;99.90
59847;DHT22;45728;48.788;2.302;2024-01-16T11:18:31;6.20;99.90
59847;DHT22;45728;48.788;2.302;2024-01-16T11:21:14;6.40;99.90
59847;DHT22;45728;48.788;2.302;2024-01-16T11:23:40;6.10;99.90
59847;DHT22;45728;48.788;2.302;2024-01-16T11:26:30;5.60;99.90
59847;DHT22;45728;48.788;2.302;2024-01-16T11:29:00;5.80;99.90
59847;DHT22;45728;48.788;2.302;2024-01-16T11:31:34;6.30;99.90
59847;DHT22;45728;48.788;2.302;2024-01-16T11:34:01;6.50;99.90
59847;DHT22;45728;48.788;2.302;2024-01-16T11:36:54;6.60;99.90
59847;DHT22;45728;48.788;2.302;2024-01-16T11:39:25;7.20;99.90
59847;DHT22;45728;48.788;2.302;2024-01-16T11:41:52;7.80;99.90
59847;DHT22;45728;48.788;2.302;2024-01-16T11:47:06;8.40;99.90
59847;DHT22;45728;48.788;2.302;2024-01-16T11:49:33;8.10;99.90
59847;DHT22;45728;48.788;2.302;2024-01-16T11:51:59;8.20;99.90
59847;DHT22;45728;48.788;2.302;2024-01-16T11:54:26;7.90;99.90
59847;DHT22;45728;48.788;2.302;2024-01-16T11:57:18;7.50;99.90
59847;DHT22;45728;48.788;2.302;2024-01-16T11:59:58;7.10;99.90
59847;DHT22;45728;48.788;2.302;2024-01-16T12:02:34;6.40;99.90
59847;DHT22;45728;48.788;2.302;2024-01-16T12:05:03;5.70;99.90
59847;DHT22;45728;48.788;2.302;2024-01-16T12:07:50;6.10;99.90
59847;DHT22;45728;48.788;2.302;2024-01-16T12:10:17;6.10;99.90
59847;DHT22;45728;48.788;2.302;2024-01-16T12:12:44;6.10;99.90
59847;DHT22;45728;48.788;2.302;2024-01-16T12:15:20;6.50;99.90
59847;DHT22;45728;48.788;2.302;2024-01-16T12:17:57;6.60;99.90
59847;DHT22;45728;48.788;2.302;2024-01-16T12:20:34;6.40;99.90
59847;DHT22;45728;48.788;2.302;2024-01-16T12:23:06;5.90;99.90
59847;DHT22;45728;48.788;2.302;2024-01-16T12:25:34;5.60;99.90
59847;DHT22;45728;48.788;2.302;2024-01-16T12:28:02;4.80;99.90
59847;DHT22;45728;48.788;2.302;2024-01-16T12:30:34;4.80;99.90
59847;DHT22;45728;48.788;2.302;2024-01-16T12:33:10;4.40;99.90
59847;DHT22;45728;48.788;2.302;2024-01-16T12:35:41;4.50;99.90
59847;DHT22;45728;48.788;2.302;2024-01-16T12:38:09;4.50;99.90
59847;DHT22;45728;48.788;2.302;2024-01-16T12:40:47;4.90;99.90
59847;DHT22;45728;48.788;2.302;2024-01-16T12:43:14;4.70;99.90
59847;DHT22;45728;48.788;2.302;2024-01-16T12:45:41;5.10;99.90
59847;DHT22;45728;48.788;2.302;2024-01-16T12:48:07;4.60;99.90
59847;DHT22;45728;48.788;2.302;2024-01-16T12:50:33;4.90;99.90
59847;DHT22;45728;48.788;2.302;2024-01-16T12:53:10;5.20;99.90
59847;DHT22;45728;48.788;2.302;2024-01-16T12:55:38;5.50;99.90
59847;DHT22;45728;48.788;2.302;2024-01-16T12:58:21;5.40;99.90
59847;DHT22;45728;48.788;2.302;2024-01-16T13:00:53;5.60;99.90
59847;DHT22;45728;48.788;2.302;2024-01-16T13:03:21;5.80;99.90
59847;DHT22;45728;48.788;2.302;2024-01-16T13:06:00;5.80;99.90
59847;DHT22;45728;48.788;2.302;2024-01-16T13:08:27;5.90;99.90
59847;DHT22;45728;48.788;2.302;2024-01-16T13:11:06;6.10;99.90
59847;DHT22;45728;48.788;2.302;2024-01-16T13:13:33;5.30;99.90
59847;DHT22;45728;48.788;2.302;2024-01-16T13:16:00;5.30;99.90
59847;DHT22;45728;48.788;2.302;2024-01-16T13:18:28;5.60;99.90
59847;DHT22;45728;48.788;2.302;2024-01-16T13:20:56;5.80;99.90
59847;DHT22;45728;48.788;2.302;2024-01-16T13:23:24;5.90;99.90
59847;DHT22;45728;48.788;2.302;2024-01-16T13:25:51;5.40;99.90
59847;DHT22;45728;48.788;2.302;2024-01-16T13:28:19;5.60;99.90
59847;DHT22;45728;48.788;2.302;2024-01-16T13:30:46;5.80;99.90
59847;DHT22;45728;48.788;2.302;2024-01-16T13:33:13;5.80;99.90
59847;DHT22;45728;48.788;2.302;2024-01-16T13:35:40;5.40;99.90
59847;DHT22;45728;48.788;2.302;2024-01-16T13:38:08;5.00;99.90
59847;DHT22;45728;48.788;2.302;2024-01-16T13:40:36;5.10;99.90
59847;DHT22;45728;48.788;2.302;2024-01-16T13:43:03;5.30;99.90
59847;DHT22;45728;48.788;2.302;2024-01-16T13:45:29;4.60;99.90
59847;DHT22;45728;48.788;2.302;2024-01-16T13:47:57;4.60;99.90
59847;DHT22;45728;48.788;2.302;2024-01-16T13:50:23;4.70;99.90
59847;DHT22;45728;48.788;2.302;2024-01-16T13:52:50;4.80;99.90
59847;DHT22;45728;48.788;2.302;2024-01-16T13:55:16;5.20;99.90
59847;DHT22;45728;48.788;2.302;2024-01-16T13:57:42;5.30;99.90
59847;DHT22;45728;48.788;2.302;2024-01-16T14:00:11;5.40;99.90
59847;DHT22;45728;48.788;2.302;2024-01-16T14:02:39;5.10;99.90
59847;DHT22;45728;48.788;2.302;2024-01-16T14:05:09;5.30;99.90
59847;DHT22;45728;48.788;2.302;2024-01-16T14:07:42;5.50;99.90
59847;DHT22;45728;48.788;2.302;2024-01-16T14:10:08;5.60;99.90
59847;DHT22;45728;48.788;2.302;2024-01-16T14:12:38;5.40;99.90
59847;DHT22;45728;48.788;2.302;2024-01-16T14:15:05;5.40;99.90
59847;DHT22;45728;48.788;2.302;2024-01-16T14:17:35;5.40;99.90
59847;DHT22;45728;48.788;2.302;2024-01-16T14:20:01;5.50;99.90
59847;DHT22;45728;48.788;2.302;2024-01-16T14:22:28;5.50;99.90
59847;DHT22;45728;48.788;2.302;2024-01-16T14:24:54;5.50;99.90
59847;DHT22;45728;48.788;2.302;2024-01-16T14:27:20;5.40;99.90
59847;DHT22;45728;48.788;2.302;2024-01-16T14:29:46;5.40;99.90
59847;DHT22;45728;48.788;2.302;2024-01-16T14:32:12;5.40;99.90
59847;DHT22;45728;48.788;2.302;2024-01-16T14:34:38;4.80;99.90
59847;DHT22;45728;48.788;2.302;2024-01-16T14:37:04;4.80;99.90
59847;DHT22;45728;48.788;2.302;2024-01-16T14:39:31;4.90;99.90
59847;DHT22;45728;48.788;2.302;2024-01-16T14:41:57;5.10;99.90
59847;DHT22;45728;48.788;2.302;2024-01-16T14:44:28;5.10;99.90
59847;DHT22;45728;48.788;2.302;2024-01-16T14:46:54;5.00;99.90
59847;DHT22;45728;48.788;2.302;2024-01-16T14:49:20;4.90;99.90
59847;DHT22;45728;48.788;2.302;2024-01-16T14:51:46;4.70;99.90
59847;DHT22;45728;48.788;2.302;2024-01-16T14:54:12;4.70;99.90
59847;DHT22;45728;48.788;2.302;2024-01-16T14:56:39;4.60;99.90
59847;DHT22;45728;48.788;2.302;2024-01-16T14:59:05;4.60;99.90
59847;DHT22;45728;48.788;2.302;2024-01-16T15:01:31;4.60;99.90
59847;DHT22;45728;48.788;2.302;2024-01-16T15:03:57;4.50;99.90
59847;DHT22;45728;48.788;2.302;2024-01-16T15:06:23;4.40;99.90
59847;DHT22;45728;48.788;2.302;2024-01-16T15:08:51;4.30;99.90
59847;DHT22;45728;48.788;2.302;2024-01-16T15:11:17;4.20;99.90
59847;DHT22;45728;48.788;2.302;2024-01-16T15:13:44;4.10;99.90
59847;DHT22;45728;48.788;2.302;2024-01-16T15:16:10;4.10;99.90
59847;DHT22;45728;48.788;2.302;2024-01-16T15:18:36;4.10;99.90
59847;DHT22;45728;48.788;2.302;2024-01-16T15:21:03;4.00;99.90
59847;DHT22;45728;48.788;2.302;2024-01-16T15:23:29;3.90;99.90
59847;DHT22;45728;48.788;2.302;2024-01-16T15:25:55;3.90;99.90
59847;DHT22;45728;48.788;2.302;2024-01-16T15:28:26;3.90;99.90
59847;DHT22;45728;48.788;2.302;2024-01-16T15:30:52;3.90;99.90
59847;DHT22;45728;48.788;2.302;2024-01-16T15:33:19;3.90;99.90
59847;DHT22;45728;48.788;2.302;2024-01-16T15:35:45;3.90;99.90
59847;DHT22;45728;48.788;2.302;2024-01-16T15:38:11;3.80;99.90
59847;DHT22;45728;48.788;2.302;2024-01-16T15:40:38;3.80;99.90
59847;DHT22;45728;48.788;2.302;2024-01-16T15:43:05;3.80;99.90